Time;durP1;ratioP1;P1;durP2;ratioP2;P2;SDS_P1;SDS_P2;PMS_P1;PMS_P2;Temp;Humidity;BMP_temperature;BMP_pressure;BME280_temperature;BME280_humidity;BME280_pressure;Samples;Min_cycle;Max_cycle;Signal;HPM_P1;HPM_P2
2023/04/22 00:01:59;;;;;;;29.57;15.57;;;;;;;6.58;100.00;100650.63;5062285;28;20032;-82
2023/04/22 00:04:24;;;;;;;30.87;16.40;;;;;;;6.52;100.00;100645.19;5095980;28;20055;-82
2023/04/22 00:06:50;;;;;;;29.53;15.27;;;;;;;6.47;100.00;100652.00;5095823;28;20451;-82
2023/04/22 00:09:15;;;;;;;27.92;15.23;;;;;;;6.41;100.00;100644.69;5078830;28;20027;-82
2023/04/22 00:11:41;;;;;;;30.27;15.30;;;;;;;6.38;100.00;100647.78;5078744;28;20031;-82
2023/04/22 00:14:06;;;;;;;31.17;15.20;;;;;;;6.34;100.00;100645.66;5097115;28;20032;-82
2023/04/22 00:16:32;;;;;;;28.60;15.37;;;;;;;6.35;100.00;100642.78;5065947;28;20456;-82
2023/04/22 00:18:57;;;;;;;32.65;15.50;;;;;;;6.28;100.00;100645.38;5099493;28;20102;-82
2023/04/22 00:21:23;;;;;;;27.97;15.97;;;;;;;6.27;100.00;100653.66;5065605;28;20024;-82
2023/04/22 00:23:48;;;;;;;30.60;17.63;;;;;;;6.27;100.00;100642.88;5099566;28;20157;-82
2023/04/22 00:26:13;;;;;;;32.27;18.63;;;;;;;6.27;100.00;100649.09;5065823;28;20047;-82
2023/04/22 00:28:41;;;;;;;34.17;18.70;;;;;;;6.26;100.00;100643.91;5082616;28;20023;-82
2023/04/22 00:31:06;;;;;;;34.47;19.55;;;;;;;6.29;100.00;100643.53;5065954;28;20902;-81
2023/04/22 00:33:32;;;;;;;35.83;19.07;;;;;;;6.32;100.00;100643.16;5117493;28;20099;-82
2023/04/22 00:35:57;;;;;;;35.33;19.30;;;;;;;6.34;100.00;100648.34;5082509;28;20307;-82
2023/04/22 00:38:23;;;;;;;34.90;19.67;;;;;;;6.34;100.00;100643.78;5082805;28;20042;-81
2023/04/22 00:40:48;;;;;;;33.70;19.50;;;;;;;6.34;100.00;100637.56;5082190;28;20405;-82
2023/04/22 00:43:16;;;;;;;35.90;20.10;;;;;;;6.39;100.00;100633.28;5099204;28;20132;-82
2023/04/22 00:45:42;;;;;;;35.30;20.23;;;;;;;6.40;100.00;100634.94;5099495;28;20032;-82
2023/04/22 00:48:08;;;;;;;34.28;19.40;;;;;;;6.43;100.00;100644.50;5081992;28;20020;-82
2023/04/22 00:50:33;;;;;;;32.33;19.30;;;;;;;6.45;100.00;100639.75;5117510;28;20100;-82
2023/04/22 00:52:59;;;;;;;35.40;19.98;;;;;;;6.49;100.00;100646.41;5082237;28;20033;-82
2023/04/22 00:55:25;;;;;;;34.30;19.60;;;;;;;6.54;100.00;100654.78;5065250;28;20028;-82
2023/04/22 00:57:53;;;;;;;35.00;20.05;;;;;;;6.56;100.00;100652.69;5082028;28;20067;-82
2023/04/22 01:00:19;;;;;;;39.22;21.25;;;;;;;6.54;100.00;100649.38;5099436;28;20032;-82
2023/04/22 01:02:45;;;;;;;34.55;20.98;;;;;;;6.52;100.00;100647.91;5098906;28;20436;-82
2023/04/22 01:05:13;;;;;;;35.88;20.92;;;;;;;6.52;100.00;100651.41;5064838;28;20435;-82
2023/04/22 01:07:38;;;;;;;39.72;22.10;;;;;;;6.52;100.00;100648.72;5081438;28;20107;-82
2023/04/22 01:10:05;;;;;;;35.60;20.90;;;;;;;6.55;100.00;100651.03;5099135;28;20429;-82
2023/04/22 01:12:30;;;;;;;34.90;21.13;;;;;;;6.60;100.00;100650.44;5116750;28;20043;-82
2023/04/22 01:14:56;;;;;;;38.00;21.73;;;;;;;6.62;100.00;100645.72;5098441;28;20463;-82
2023/04/22 01:17:23;;;;;;;37.70;21.63;;;;;;;6.64;100.00;100644.50;5098616;28;20062;-82
2023/04/22 01:19:49;;;;;;;36.33;20.50;;;;;;;6.68;100.00;100636.84;5116592;28;20176;-82
2023/04/22 01:22:15;;;;;;;35.15;20.13;;;;;;;6.70;100.00;100639.34;5098687;28;20043;-82
2023/04/22 01:24:41;;;;;;;31.80;19.27;;;;;;;6.71;100.00;100641.84;5081721;28;20050;-82
2023/04/22 01:27:07;;;;;;;30.00;18.15;;;;;;;6.75;100.00;100642.28;5097693;28;20447;-82
2023/04/22 01:29:34;;;;;;;33.80;19.08;;;;;;;6.76;100.00;100638.53;5097945;28;20488;-82
2023/04/22 01:32:00;;;;;;;33.10;18.33;;;;;;;6.77;100.00;100632.13;5098421;28;20027;-82
2023/04/22 01:34:25;;;;;;;30.02;18.13;;;;;;;6.81;100.00;100636.13;5080854;28;20466;-82
2023/04/22 01:36:51;;;;;;;30.23;17.97;;;;;;;6.81;100.00;100631.53;5098109;28;20028;-82
2023/04/22 01:39:17;;;;;;;28.77;16.97;;;;;;;6.82;100.00;100633.22;5081961;28;20024;-82
2023/04/22 01:41:42;;;;;;;29.73;17.73;;;;;;;6.84;100.00;100631.16;5098385;28;20041;-82
2023/04/22 01:44:09;;;;;;;28.08;16.45;;;;;;;6.86;100.00;100630.94;5097770;28;20032;-82
2023/04/22 01:46:35;;;;;;;29.53;16.63;;;;;;;6.88;100.00;100622.66;5081248;28;20453;-82
2023/04/22 01:49:00;;;;;;;26.50;16.08;;;;;;;6.87;100.00;100629.09;5097714;28;20539;-82
2023/04/22 01:51:26;;;;;;;25.63;15.43;;;;;;;6.88;100.00;100628.91;5098564;28;20027;-82
2023/04/22 01:53:51;;;;;;;27.03;15.67;;;;;;;6.90;100.00;100632.22;5098275;28;20040;-82
2023/04/22 01:56:17;;;;;;;23.27;14.85;;;;;;;6.88;100.00;100628.91;5098055;28;20729;-82
2023/04/22 01:58:42;;;;;;;26.87;15.67;;;;;;;6.92;100.00;100632.03;5097730;28;20031;-82
2023/04/22 02:01:10;;;;;;;28.73;17.33;;;;;;;6.92;100.00;100630.16;5097598;28;20035;-82
2023/04/22 02:03:36;;;;;;;28.80;16.15;;;;;;;6.90;100.00;100626.84;5098308;28;20030;-82
2023/04/22 02:06:01;;;;;;;30.20;16.20;;;;;;;6.90;100.00;100632.22;5115364;28;20047;-82
2023/04/22 02:08:27;;;;;;;27.30;15.77;;;;;;;6.91;100.00;100627.66;5115607;28;20383;-82
2023/04/22 02:10:52;;;;;;;23.92;15.02;;;;;;;6.90;100.00;100636.81;5080578;28;20141;-82
2023/04/22 02:13:18;;;;;;;25.00;16.13;;;;;;;6.85;100.00;100626.59;5080495;28;20036;-83
2023/04/22 02:15:43;;;;;;;25.50;14.87;;;;;;;6.87;100.00;100629.94;5080439;28;20066;-82
2023/04/22 02:18:09;;;;;;;26.00;16.13;;;;;;;6.88;100.00;100628.91;5063713;28;20134;-82
2023/04/22 02:20:35;;;;;;;28.00;16.63;;;;;;;6.90;100.00;100621.44;5097162;28;20114;-82
2023/04/22 02:23:01;;;;;;;26.27;16.45;;;;;;;6.89;100.00;100627.03;5079953;28;20031;-82
2023/04/22 02:25:27;;;;;;;28.65;17.05;;;;;;;6.84;100.00;100619.53;5096987;28;20028;-82
2023/04/22 02:27:53;;;;;;;30.95;17.15;;;;;;;6.84;100.00;100627.63;5097209;28;20023;-82
2023/04/22 02:30:18;;;;;;;29.30;17.73;;;;;;;6.81;100.00;100620.75;5097386;28;20105;-82
2023/04/22 02:32:44;;;;;;;28.03;17.50;;;;;;;6.82;100.00;100613.50;5079878;28;20036;-82
2023/04/22 02:35:10;;;;;;;28.40;17.42;;;;;;;6.80;100.00;100605.59;5097322;28;20031;-82
2023/04/22 02:37:36;;;;;;;28.50;17.53;;;;;;;6.82;100.00;100605.41;5096647;28;20118;-82
2023/04/22 02:40:02;;;;;;;30.23;17.58;;;;;;;6.82;100.00;100608.94;5114703;28;20031;-82
2023/04/22 02:42:28;;;;;;;30.92;17.77;;;;;;;6.82;100.00;100608.94;5097642;28;20447;-82
2023/04/22 02:44:53;;;;;;;30.30;17.47;;;;;;;6.82;100.00;100605.41;5079856;28;20115;-82
2023/04/22 02:47:19;;;;;;;34.92;18.23;;;;;;;6.81;100.00;100599.19;5079826;28;20028;-82
2023/04/22 02:49:44;;;;;;;29.05;17.92;;;;;;;6.81;100.00;100606.44;5096816;28;20031;-82
2023/04/22 02:52:10;;;;;;;32.40;18.23;;;;;;;6.79;100.00;100605.78;5079845;28;20031;-82
2023/04/22 02:54:35;;;;;;;27.67;17.57;;;;;;;6.80;100.00;100600.19;5079418;28;20376;-82
2023/04/22 02:57:01;;;;;;;37.10;17.23;;;;;;;6.82;100.00;100600.84;5115001;28;20084;-82
2023/04/22 02:59:27;;;;;;;29.80;17.73;;;;;;;6.82;100.00;100600.84;5114658;28;20257;-82
2023/04/22 03:01:52;;;;;;;26.90;17.60;;;;;;;6.84;100.00;100608.75;5096373;28;20126;-82
2023/04/22 03:04:20;;;;;;;30.43;17.83;;;;;;;6.77;100.00;100606.00;5079354;28;20063;-82
2023/04/22 03:06:47;;;;;;;28.33;17.83;;;;;;;6.77;100.00;100603.28;5096588;28;20506;-82
2023/04/22 03:09:13;;;;;;;29.63;18.17;;;;;;;6.77;100.00;100599.78;5079281;28;20038;-82
2023/04/22 03:11:38;;;;;;;30.33;17.35;;;;;;;6.71;100.00;100596.00;5096412;28;20024;-82
2023/04/22 03:14:04;;;;;;;28.77;17.30;;;;;;;6.70;100.00;100583.53;5114264;28;20386;-82
2023/04/22 03:16:29;;;;;;;27.20;17.13;;;;;;;6.71;100.00;100595.19;5079534;28;20367;-82
2023/04/22 03:18:54;;;;;;;30.10;17.27;;;;;;;6.68;100.00;100588.31;5079378;28;20088;-82
2023/04/22 03:21:20;;;;;;;30.40;17.90;;;;;;;6.66;100.00;100584.97;5062731;28;20034;-82
2023/04/22 03:23:45;;;;;;;30.63;17.90;;;;;;;6.64;100.00;100589.72;5096239;28;20031;-83
2023/04/22 03:26:12;;;;;;;32.60;17.60;;;;;;;6.62;100.00;100578.31;5096190;28;20036;-82
2023/04/22 03:28:38;;;;;;;28.00;17.02;;;;;;;6.60;100.00;100575.81;5096310;28;20028;-82
2023/04/22 03:31:03;;;;;;;30.43;17.73;;;;;;;6.58;100.00;100571.63;5114559;28;20114;-82
2023/04/22 03:33:29;;;;;;;31.98;17.38;;;;;;;6.61;100.00;100573.94;5096079;28;20080;-83
2023/04/22 03:35:55;;;;;;;30.93;17.10;;;;;;;6.61;100.00;100572.06;5062324;28;20117;-82
2023/04/22 03:38:20;;;;;;;34.33;17.85;;;;;;;6.63;100.00;100561.13;5079154;28;20031;-82
2023/04/22 03:40:46;;;;;;;29.13;17.57;;;;;;;6.67;100.00;100570.44;5078853;28;20067;-82
2023/04/22 03:43:11;;;;;;;31.53;17.87;;;;;;;6.67;100.00;100559.66;5095519;28;20086;-82
2023/04/22 03:45:36;;;;;;;32.93;17.93;;;;;;;6.66;100.00;100564.25;5095580;28;20065;-82
2023/04/22 03:48:02;;;;;;;28.73;17.85;;;;;;;6.65;100.00;100554.47;5096139;28;20296;-82
2023/04/22 03:50:28;;;;;;;31.03;18.10;;;;;;;6.65;100.00;100551.78;5082846;28;20549;-82
2023/04/22 03:52:53;;;;;;;35.07;19.03;;;;;;;6.64;100.00;100555.53;5083267;28;20024;-82
2023/04/22 03:55:19;;;;;;;29.13;18.27;;;;;;;6.64;100.00;100552.81;5118357;28;20114;-82
2023/04/22 03:57:44;;;;;;;31.30;18.73;;;;;;;6.59;100.00;100547.19;5099964;28;20046;-83
2023/04/22 04:00:13;;;;;;;30.97;18.63;;;;;;;6.59;100.00;100549.88;5066412;28;20031;-82
2023/04/22 04:02:38;;;;;;;30.10;18.70;;;;;;;6.59;100.00;100560.66;5099792;28;20035;-82
2023/04/22 04:05:05;;;;;;;32.83;18.83;;;;;;;6.57;100.00;100548.41;5082495;28;20055;-82
2023/04/22 04:07:30;;;;;;;34.35;19.60;;;;;;;6.58;100.00;100541.97;5099818;28;20027;-82
2023/04/22 04:09:55;;;;;;;34.17;18.47;;;;;;;6.60;100.00;100535.38;5083263;28;20028;-83
2023/04/22 04:12:21;;;;;;;29.07;18.70;;;;;;;6.62;100.00;100538.69;5099732;28;20049;-82
2023/04/22 04:14:46;;;;;;;33.95;20.02;;;;;;;6.63;100.00;100536.84;5082411;28;20117;-82
2023/04/22 04:17:14;;;;;;;38.13;19.63;;;;;;;6.58;100.00;100537.41;5082700;28;20494;-83
2023/04/22 04:19:40;;;;;;;33.78;18.48;;;;;;;6.60;100.00;100543.47;5118237;28;20032;-83
2023/04/22 04:22:05;;;;;;;30.93;18.60;;;;;;;6.57;100.00;100541.16;5099680;28;20053;-83
2023/04/22 04:24:31;;;;;;;32.53;19.67;;;;;;;6.54;100.00;100544.25;5082560;28;20506;-84
2023/04/22 04:26:56;;;;;;;30.38;18.67;;;;;;;6.54;100.00;100541.56;5099459;28;20437;-83
2023/04/22 04:29:22;;;;;;;32.00;18.37;;;;;;;6.54;100.00;100538.88;5099347;28;20028;-83
2023/04/22 04:31:48;;;;;;;32.72;19.30;;;;;;;6.49;100.00;100536.72;5082331;28;20038;-83
2023/04/22 04:34:14;;;;;;;29.23;18.07;;;;;;;6.53;100.00;100533.66;5099417;28;20110;-82
2023/04/22 04:36:41;;;;;;;32.33;19.03;;;;;;;6.49;100.00;100542.13;5082605;28;20034;-83
2023/04/22 04:39:10;;;;;;;31.63;18.67;;;;;;;6.45;100.00;100532.78;5099687;28;20080;-83
2023/04/22 04:41:37;;;;;;;33.33;18.73;;;;;;;6.45;100.00;100532.78;5066353;28;20051;-83
2023/04/22 04:44:03;;;;;;;34.97;18.70;;;;;;;6.50;100.00;100535.72;5099560;28;20448;-83
2023/04/22 04:46:28;;;;;;;32.60;19.93;;;;;;;6.49;100.00;100535.91;5082853;28;20089;-83
2023/04/22 04:48:54;;;;;;;34.57;19.47;;;;;;;6.54;100.00;100540.69;5099246;28;20089;-83
2023/04/22 04:51:20;;;;;;;36.47;20.35;;;;;;;6.59;100.00;100544.47;5082963;28;20067;-82
2023/04/22 04:53:45;;;;;;;35.50;20.03;;;;;;;6.63;100.00;100539.53;5099160;28;20454;-82
2023/04/22 04:56:11;;;;;;;36.63;19.80;;;;;;;6.66;100.00;100550.75;5098980;28;20032;-83
2023/04/22 04:58:36;;;;;;;31.20;19.33;;;;;;;6.73;100.00;100539.19;5081807;28;20024;-83
2023/04/22 05:01:01;;;;;;;35.33;20.30;;;;;;;6.78;100.00;100547.53;5098653;28;20074;-83
2023/04/22 05:03:27;;;;;;;35.20;20.50;;;;;;;6.79;100.00;100541.06;5098725;28;20031;-82
2023/04/22 05:05:53;;;;;;;32.42;20.05;;;;;;;6.79;100.00;100546.47;5116467;28;20063;-83
2023/04/22 05:08:18;;;;;;;33.97;20.07;;;;;;;6.78;100.00;100537.56;5081885;28;20135;-83
2023/04/22 05:10:44;;;;;;;33.27;20.00;;;;;;;6.80;100.00;100537.34;5081527;28;20027;-82
2023/04/22 05:13:09;;;;;;;35.63;21.00;;;;;;;6.81;100.00;100531.75;5081912;28;20106;-83
2023/04/22 05:15:35;;;;;;;34.80;21.07;;;;;;;6.85;100.00;100521.44;5098113;28;20043;-83
2023/04/22 05:18:01;;;;;;;38.75;21.55;;;;;;;6.94;100.00;100525.63;5082300;28;20182;-82
2023/04/22 05:20:26;;;;;;;40.77;22.60;;;;;;;6.99;100.00;100522.31;5064965;28;20074;-83
2023/04/22 05:22:52;;;;;;;37.28;21.88;;;;;;;7.02;100.00;100520.03;5098702;28;20519;-83
2023/04/22 05:25:17;;;;;;;37.33;21.47;;;;;;;7.06;100.00;100525.88;5081205;28;20035;-83
2023/04/22 05:27:43;;;;;;;41.20;22.27;;;;;;;7.15;100.00;100531.94;5098272;28;20102;-83
2023/04/22 05:30:09;;;;;;;37.60;22.10;;;;;;;7.25;100.00;100540.50;5097935;28;20476;-83
2023/04/22 05:32:34;;;;;;;34.88;22.42;;;;;;;7.29;100.00;100536.38;5098219;28;20050;-83
2023/04/22 05:35:00;;;;;;;36.20;22.03;;;;;;;7.34;100.00;100527.69;5098074;28;20020;-82
2023/04/22 05:37:25;;;;;;;37.40;21.97;;;;;;;7.42;100.00;100523.97;5098088;28;20344;-83
2023/04/22 05:39:53;;;;;;;41.40;21.90;;;;;;;7.44;100.00;100517.34;5081191;28;20373;-83
2023/04/22 05:42:19;;;;;;;35.38;21.48;;;;;;;7.51;100.00;100522.72;5097877;28;20024;-83
2023/04/22 05:44:44;;;;;;;41.25;22.70;;;;;;;7.55;100.00;100524.81;5098705;28;20028;-83
2023/04/22 05:47:10;;;;;;;37.63;22.57;;;;;;;7.63;100.00;100525.66;5116273;28;20430;-83
2023/04/22 05:49:35;;;;;;;37.80;22.77;;;;;;;7.68;100.00;100523.22;5097864;28;20036;-83
2023/04/22 05:52:00;;;;;;;38.45;23.50;;;;;;;7.75;100.00;100521.34;5081301;28;20036;-83
2023/04/22 05:54:28;;;;;;;40.33;25.05;;;;;;;7.86;100.00;100519.91;5097669;28;20454;-83
2023/04/22 05:56:54;;;;;;;46.70;26.83;;;;;;;7.99;100.00;100519.09;5081232;28;20073;-82
2023/04/22 05:59:20;;;;;;;43.35;27.48;;;;;;;8.05;100.00;100519.09;5097472;28;20032;-83
2023/04/22 06:01:45;;;;;;;48.75;27.92;;;;;;;8.14;100.00;100524.31;5098346;28;20023;-83
2023/04/22 06:04:11;;;;;;;47.03;30.37;;;;;;;8.19;100.00;100513.69;5080694;28;20384;-82
2023/04/22 06:06:36;;;;;;;48.33;28.87;;;;;;;8.30;100.00;100517.63;5080328;28;20496;-82
2023/04/22 06:09:02;;;;;;;51.92;29.92;;;;;;;8.37;100.00;100513.06;5081039;28;20032;-83
2023/04/22 06:11:27;;;;;;;48.20;29.23;;;;;;;8.37;100.00;100513.91;5079714;28;20467;-83
2023/04/22 06:13:53;;;;;;;50.27;29.87;;;;;;;8.39;100.00;100524.50;5080457;28;20020;-83
2023/04/22 06:16:18;;;;;;;45.67;29.48;;;;;;;8.46;100.00;100527.22;5080414;28;20467;-82
2023/04/22 06:18:44;;;;;;;43.70;28.27;;;;;;;8.53;100.00;100526.22;5115219;28;20038;-81
2023/04/22 06:21:10;;;;;;;43.17;28.53;;;;;;;8.60;100.00;100515.38;5080171;28;20122;-83
2023/04/22 06:23:35;;;;;;;48.25;28.75;;;;;;;8.71;100.00;100503.91;5096524;28;20039;-82
2023/04/22 06:26:01;;;;;;;46.03;27.87;;;;;;;8.79;100.00;100510.97;5097307;28;20442;-83
2023/04/22 06:28:27;;;;;;;40.90;27.65;;;;;;;8.88;100.00;100500.75;5096951;28;20080;-82
2023/04/22 06:30:53;;;;;;;40.63;26.67;;;;;;;9.01;100.00;100508.00;5080465;28;20051;-83
2023/04/22 06:33:20;;;;;;;39.03;26.45;;;;;;;9.17;100.00;100512.06;5079613;28;20529;-83
2023/04/22 06:35:46;;;;;;;39.20;26.65;;;;;;;9.31;100.00;100513.69;5080436;28;20059;-83
2023/04/22 06:38:12;;;;;;;37.33;25.07;;;;;;;9.37;100.00;100507.41;5097257;28;20070;-82
2023/04/22 06:40:37;;;;;;;34.47;23.17;;;;;;;9.37;100.00;100510.13;5115014;28;20085;-83
2023/04/22 06:43:03;;;;;;;32.50;22.42;;;;;;;9.37;100.00;100502.00;5079846;28;20557;-84
2023/04/22 06:45:28;;;;;;;33.60;22.30;;;;;;;9.37;100.00;100501.16;5079933;28;20377;-83
2023/04/22 06:47:54;;;;;;;28.02;20.42;;;;;;;9.38;100.00;100500.97;5079258;28;20467;-83
2023/04/22 06:50:19;;;;;;;27.50;19.87;;;;;;;9.40;100.00;100490.72;5079724;28;20043;-83
2023/04/22 06:52:45;;;;;;;27.57;17.97;;;;;;;9.44;100.00;100496.56;5080289;28;20378;-83
2023/04/22 06:55:11;;;;;;;23.00;16.90;;;;;;;9.46;100.00;100505.28;5096686;28;20034;-83
2023/04/22 06:57:36;;;;;;;23.85;17.20;;;;;;;9.59;100.00;100498.97;5114600;28;20106;-83
2023/04/22 07:00:07;;;;;;;24.57;17.20;;;;;;;9.74;100.00;100495.97;5097287;28;20110;-83
2023/04/22 07:02:36;;;;;;;23.70;17.13;;;;;;;9.93;100.00;100505.00;5097059;28;20032;-82
2023/04/22 07:05:04;;;;;;;20.83;15.55;;;;;;;10.10;100.00;100491.75;5079614;28;20059;-83
2023/04/22 07:07:29;;;;;;;25.20;16.17;;;;;;;10.32;100.00;100492.19;5096982;28;20383;-82
2023/04/22 07:09:55;;;;;;;18.05;14.13;;;;;;;10.48;100.00;100496.22;5079204;28;20028;-82
2023/04/22 07:12:20;;;;;;;19.07;14.13;;;;;;;10.70;100.00;100494.78;5114420;28;20031;-82
2023/04/22 07:14:48;;;;;;;25.67;14.47;;;;;;;10.85;100.00;100488.97;5079796;28;20035;-82
2023/04/22 07:17:14;;;;;;;19.10;13.40;;;;;;;10.96;100.00;100489.28;5095627;28;20030;-81
2023/04/22 07:19:39;;;;;;;17.45;13.10;;;;;;;11.11;100.00;100480.75;5062615;28;20032;-82
2023/04/22 07:22:05;;;;;;;16.13;11.17;;;;;;;11.19;100.00;100489.41;5095961;28;20035;-81
2023/04/22 07:24:31;;;;;;;15.50;10.53;;;;;;;11.24;100.00;100491.44;5079072;28;20475;-81
2023/04/22 07:26:57;;;;;;;14.82;10.38;;;;;;;11.21;100.00;100492.72;5095809;28;20501;-81
2023/04/22 07:29:22;;;;;;;13.02;10.02;;;;;;;11.14;100.00;100496.56;5079599;28;20100;-82
2023/04/22 07:31:48;;;;;;;14.10;10.37;;;;;;;11.10;100.00;100498.06;5096553;28;20489;-82
2023/04/22 07:34:13;;;;;;;15.77;10.73;;;;;;;11.12;100.00;100493.25;5095901;28;20034;-82
2023/04/22 07:36:39;;;;;;;15.37;10.27;;;;;;;11.19;100.00;100483.13;5096265;28;20046;-82
2023/04/22 07:39:05;;;;;;;16.73;11.17;;;;;;;11.34;100.00;100485.47;5095615;28;20269;-81
2023/04/22 07:41:30;;;;;;;16.15;10.65;;;;;;;11.43;100.00;100489.50;5078869;28;20023;-82
2023/04/22 07:43:56;;;;;;;15.83;10.67;;;;;;;11.46;100.00;100493.66;5079375;28;20073;-82
2023/04/22 07:46:21;;;;;;;14.43;10.57;;;;;;;11.43;100.00;100494.94;5096287;28;20424;-82
2023/04/22 07:48:47;;;;;;;14.70;10.13;;;;;;;11.36;100.00;100496.91;5113930;28;20036;-82
2023/04/22 07:51:13;;;;;;;15.77;10.57;;;;;;;11.44;100.00;100485.75;5095914;28;20100;-82
2023/04/22 07:53:38;;;;;;;15.50;10.40;;;;;;;11.60;100.00;100465.22;5078529;28;20468;-82
2023/04/22 07:56:04;;;;;;;16.55;11.73;;;;;;;11.74;100.00;100468.59;5095726;28;20040;-82
2023/04/22 07:58:29;;;;;;;14.03;10.27;;;;;;;11.94;100.00;100471.00;5095303;28;20027;-82
2023/04/22 08:00:54;;;;;;;14.20;10.23;;;;;;;12.04;100.00;100462.28;5096393;28;20466;-82
2023/04/22 08:03:20;;;;;;;13.77;10.60;;;;;;;12.19;100.00;100462.66;5113680;28;20063;-82
2023/04/22 08:05:46;;;;;;;15.55;11.05;;;;;;;12.33;100.00;100455.09;5113770;28;20052;-82
2023/04/22 08:08:11;;;;;;;16.03;10.57;;;;;;;12.50;100.00;100446.22;5078900;28;20107;-82
2023/04/22 08:10:36;;;;;;;18.37;13.30;;;;;;;12.74;100.00;100447.84;5095519;28;20028;-82
2023/04/22 08:13:02;;;;;;;18.97;12.40;;;;;;;13.06;100.00;100449.31;5095469;28;20458;-82
2023/04/22 08:15:27;;;;;;;12.43;8.97;;;;;;;13.32;100.00;100447.91;5078890;28;20284;-82
2023/04/22 08:17:53;;;;;;;10.97;8.40;;;;;;;13.69;100.00;100450.25;5113748;28;20024;-82
2023/04/22 08:20:18;;;;;;;9.77;7.33;;;;;;;13.86;100.00;100448.38;5078552;28;20425;-82
2023/04/22 08:22:44;;;;;;;12.43;7.65;;;;;;;13.89;100.00;100446.22;5078574;28;20071;-83
2023/04/22 08:25:10;;;;;;;9.77;7.70;;;;;;;14.01;100.00;100439.59;5095446;28;20043;-82
2023/04/22 08:27:36;;;;;;;11.95;7.10;;;;;;;14.13;100.00;100436.78;5078983;28;20118;-82
2023/04/22 08:30:02;;;;;;;10.40;7.60;;;;;;;14.27;100.00;100434.53;5079307;28;20059;-82
2023/04/22 08:32:27;;;;;;;11.02;7.18;;;;;;;14.53;100.00;100441.19;5095712;28;20100;-83
2023/04/22 08:34:53;;;;;;;8.77;7.47;;;;;;;14.79;100.00;100440.72;5079094;28;20472;-83
2023/04/22 08:37:19;;;;;;;9.18;7.22;;;;;;;14.98;100.00;100428.41;5117423;28;20020;-83
2023/04/22 08:39:44;;;;;;;8.73;7.50;;;;;;;14.96;100.00;100422.38;5099025;28;20085;-82
2023/04/22 08:42:13;;;;;;;8.80;7.10;;;;;;;14.84;99.59;100406.13;5082655;28;20577;-82
2023/04/22 08:44:38;;;;;;;11.88;7.00;;;;;;;14.82;99.29;100407.44;5099196;28;20028;-82
2023/04/22 08:47:04;;;;;;;8.35;6.40;;;;;;;14.78;97.75;100401.69;5082057;28;20031;-83
2023/04/22 08:49:30;;;;;;;8.40;6.40;;;;;;;14.86;97.12;100394.94;5065904;28;20077;-82
2023/04/22 08:51:56;;;;;;;7.85;6.80;;;;;;;15.16;95.88;100391.75;5099570;28;20448;-82
2023/04/22 08:54:23;;;;;;;7.80;6.80;;;;;;;15.39;93.60;100400.72;5116737;28;20023;-82
2023/04/22 08:56:49;;;;;;;8.93;5.93;;;;;;;15.75;94.08;100401.88;5116904;28;20031;-82
2023/04/22 08:59:15;;;;;;;7.93;5.95;;;;;;;16.03;92.53;100396.34;5117397;28;20035;-82
2023/04/22 09:01:41;;;;;;;6.20;5.30;;;;;;;16.24;89.52;100394.56;5098870;28;20046;-82
2023/04/22 09:04:13;;;;;;;8.90;6.60;;;;;;;16.39;89.39;100391.94;5098201;28;20281;-82
2023/04/22 09:06:39;;;;;;;10.88;6.25;;;;;;;16.51;86.46;100388.16;5098546;28;20039;-83
2023/04/22 09:09:04;;;;;;;8.10;5.22;;;;;;;16.59;85.69;100399.41;5081571;28;20214;-83
2023/04/22 09:11:31;;;;;;;7.17;6.20;;;;;;;16.41;83.71;100391.66;5098308;28;20115;-82
2023/04/22 09:13:57;;;;;;;6.55;5.40;;;;;;;16.24;86.30;100391.81;5116158;28;20072;-83
2023/04/22 09:16:22;;;;;;;8.17;5.47;;;;;;;16.18;88.07;100390.16;5081100;28;20032;-83
2023/04/22 09:18:49;;;;;;;6.72;5.32;;;;;;;16.04;86.74;100396.06;5116319;28;20493;-82
2023/04/22 09:21:15;;;;;;;7.53;5.23;;;;;;;15.64;87.78;100400.13;5081149;28;20032;-83
2023/04/22 09:23:52;;;;;;;6.95;6.22;;;;;;;15.31;92.43;100396.53;5098227;28;20375;-83
2023/04/22 09:26:23;;;;;;;9.35;5.95;;;;;;;15.21;90.58;100390.97;5116371;28;20028;-83
2023/04/22 09:28:52;;;;;;;6.55;5.55;;;;;;;15.06;93.31;100380.72;5097423;28;20020;-83
2023/04/22 09:31:20;;;;;;;9.30;6.60;;;;;;;15.10;92.56;100379.09;5097829;28;20035;-82
2023/04/22 09:33:55;;;;;;;7.53;6.22;;;;;;;15.25;93.96;100386.63;5116201;28;20577;-83
2023/04/22 09:36:28;;;;;;;9.23;6.40;;;;;;;15.46;92.86;100375.88;5097704;28;20118;-83
2023/04/22 09:38:58;;;;;;;11.43;5.93;;;;;;;15.70;89.89;100376.38;5080828;28;20020;-83
2023/04/22 09:41:32;;;;;;;9.40;6.22;;;;;;;15.86;91.50;100388.31;5115861;28;20397;-83
2023/04/22 09:43:59;;;;;;;8.90;6.27;;;;;;;16.09;89.83;100387.91;5097737;28;20104;-82
2023/04/22 09:46:26;;;;;;;13.30;6.55;;;;;;;16.24;87.38;100391.81;5096246;28;20030;-83
2023/04/22 09:48:53;;;;;;;8.00;6.32;;;;;;;16.34;87.16;100393.81;5097630;28;20096;-82
2023/04/22 09:51:19;;;;;;;6.68;5.50;;;;;;;16.43;86.28;100375.78;5080956;28;20123;-83
2023/04/22 09:53:56;;;;;;;6.67;5.77;;;;;;;16.42;85.53;100388.66;5097888;28;20023;-83
2023/04/22 09:56:39;;;;;;;9.27;5.80;;;;;;;16.30;87.06;100386.13;5115808;28;20396;-83
2023/04/22 09:59:05;;;;;;;9.15;5.43;;;;;;;16.48;86.07;100384.84;5097333;28;20495;-82
2023/04/22 10:01:36;;;;;;;7.47;5.68;;;;;;;16.81;85.43;100390.19;5080213;28;20063;-82
2023/04/22 10:04:01;;;;;;;8.55;6.43;;;;;;;16.84;81.69;100389.66;5115600;28;20538;-82
2023/04/22 10:06:27;;;;;;;7.90;6.50;;;;;;;17.08;81.05;100394.69;5116370;28;20082;-82
2023/04/22 10:08:53;;;;;;;6.82;6.10;;;;;;;17.12;81.01;100387.59;5097420;28;20028;-83
2023/04/22 10:11:18;;;;;;;7.43;6.57;;;;;;;17.04;80.46;100388.09;5080577;28;20032;-82
2023/04/22 10:13:45;;;;;;;8.13;5.90;;;;;;;17.00;80.65;100390.56;5096889;28;20191;-83
2023/04/22 10:16:11;;;;;;;8.23;6.20;;;;;;;17.29;77.56;100398.31;5097889;28;20138;-83
2023/04/22 10:18:38;;;;;;;8.45;6.38;;;;;;;17.32;78.10;100406.00;5115341;28;20028;-83
2023/04/22 10:21:05;;;;;;;8.40;6.00;;;;;;;17.46;77.59;100398.06;5115128;28;20032;-84
2023/04/22 10:23:32;;;;;;;7.88;6.25;;;;;;;17.61;77.99;100395.34;5096911;28;20066;-83
2023/04/22 10:25:58;;;;;;;6.38;5.78;;;;;;;17.87;75.82;100389.84;5115284;28;20027;-83
2023/04/22 10:28:29;;;;;;;6.28;5.10;;;;;;;18.14;74.90;100380.50;5063244;28;20032;-83
2023/04/22 10:30:55;;;;;;;7.82;5.25;;;;;;;18.36;72.20;100391.97;5097015;28;20395;-83
2023/04/22 10:33:20;;;;;;;5.40;4.83;;;;;;;18.62;73.15;100391.09;5115056;28;20020;-83
2023/04/22 10:36:14;;;;;;;7.47;5.10;;;;;;;18.81;74.23;100394.03;5097164;28;20028;-83
2023/04/22 10:38:54;;;;;;;7.10;4.55;;;;;;;18.92;76.32;100369.00;5114914;28;20147;-83
2023/04/22 10:41:30;;;;;;;5.95;4.13;;;;;;;18.75;71.83;100363.84;5096665;28;20549;-83
2023/04/22 10:44:01;;;;;;;5.72;4.10;;;;;;;18.41;70.86;100363.72;5097407;28;20024;-83
2023/04/22 10:46:38;;;;;;;6.80;4.40;;;;;;;17.85;71.06;100389.31;5115263;28;20028;-83
2023/04/22 10:49:09;;;;;;;5.63;4.07;;;;;;;17.28;73.88;100389.25;5114891;28;20076;-83
2023/04/22 10:51:45;;;;;;;4.75;4.15;;;;;;;16.92;76.22;100400.13;5114473;28;20032;-83
2023/04/22 10:54:30;;;;;;;7.72;4.30;;;;;;;16.56;76.86;100397.19;5096966;28;20145;-83
2023/04/22 10:57:06;;;;;;;5.00;4.40;;;;;;;16.38;77.35;100398.47;5097255;28;20067;-83
2023/04/22 10:59:34;;;;;;;6.23;4.30;;;;;;;16.19;78.28;100405.50;5096688;28;20123;-83
2023/04/22 11:02:04;;;;;;;7.85;3.78;;;;;;;16.09;78.82;100414.44;5079924;28;20121;-83
2023/04/22 11:04:30;;;;;;;5.10;3.92;;;;;;;15.98;79.92;100401.78;5096321;28;20030;-83
2023/04/22 11:07:15;;;;;;;7.37;4.70;;;;;;;15.44;89.03;100409.78;5062677;28;20051;-83
2023/04/22 11:09:44;;;;;;;10.57;5.07;;;;;;;14.74;93.40;100408.72;5114527;28;20035;-83